createdAt,value
2018-12-17T00:02:16.308Z,7.10
2018-12-17T00:04:44.523Z,7.57
2018-12-17T00:07:12.728Z,8.00
2018-12-17T00:09:40.950Z,7.57
2018-12-17T00:12:09.169Z,7.37
2018-12-17T00:14:37.385Z,7.50
2018-12-17T00:17:05.592Z,7.87
2018-12-17T00:19:33.805Z,7.70
2018-12-17T00:22:02.012Z,6.73
2018-12-17T00:24:30.233Z,7.33
2018-12-17T00:26:58.440Z,7.00
2018-12-17T00:29:26.650Z,7.27
2018-12-17T00:31:54.874Z,8.30
2018-12-17T00:34:23.095Z,7.10
2018-12-17T00:36:51.292Z,7.73
2018-12-17T00:39:19.508Z,7.60
2018-12-17T00:41:47.715Z,7.90
2018-12-17T00:44:15.970Z,7.50
2018-12-17T00:46:44.184Z,6.83
2018-12-17T00:49:12.409Z,7.00
2018-12-17T00:51:40.816Z,7.63
2018-12-17T00:54:09.032Z,7.30
2018-12-17T00:56:37.238Z,6.90
2018-12-17T00:59:05.452Z,6.03
2018-12-17T01:01:33.668Z,6.93
2018-12-17T01:04:01.889Z,7.20
2018-12-17T01:06:30.091Z,7.23
2018-12-17T01:08:58.308Z,6.50
2018-12-17T01:11:26.517Z,6.00
2018-12-17T01:13:54.771Z,8.23
2018-12-17T01:16:22.988Z,6.77
2018-12-17T01:18:51.211Z,7.60
2018-12-17T01:21:19.814Z,7.23
2018-12-17T01:23:48.124Z,7.67
2018-12-17T01:26:16.515Z,6.70
2018-12-17T01:28:44.903Z,7.53
2018-12-17T01:31:13.118Z,7.83
2018-12-17T01:33:41.346Z,7.97
2018-12-17T01:36:09.644Z,7.60
2018-12-17T01:38:37.847Z,8.60
2018-12-17T01:41:06.067Z,10.53
2018-12-17T01:43:34.283Z,10.97
2018-12-17T01:46:02.508Z,10.97
2018-12-17T01:48:30.716Z,10.30
2018-12-17T01:50:58.932Z,11.90
2018-12-17T01:53:27.153Z,11.97
2018-12-17T01:55:55.380Z,10.13
2018-12-17T01:58:29.135Z,10.17
2018-12-17T02:00:53.805Z,13.13
2018-12-17T02:03:22.020Z,11.43
2018-12-17T02:05:50.237Z,12.67
2018-12-17T02:08:18.548Z,11.40
2018-12-17T02:10:46.768Z,11.43
2018-12-17T02:13:14.975Z,10.87
2018-12-17T02:15:43.192Z,11.00
2018-12-17T02:18:11.488Z,10.67
2018-12-17T02:20:39.716Z,12.07
2018-12-17T02:23:07.920Z,11.13
2018-12-17T02:25:36.131Z,10.60
2018-12-17T02:28:04.441Z,10.90
2018-12-17T02:30:32.668Z,10.47
2018-12-17T02:33:00.889Z,10.10
2018-12-17T02:35:29.100Z,12.00
2018-12-17T02:37:57.412Z,12.00
2018-12-17T02:40:25.636Z,9.60
2018-12-17T02:42:53.850Z,11.87
2018-12-17T02:45:22.076Z,11.20
2018-12-17T02:47:50.298Z,10.80
2018-12-17T02:50:18.527Z,11.03
2018-12-17T02:52:46.736Z,11.00
2018-12-17T02:55:15.041Z,11.60
2018-12-17T02:57:43.267Z,11.70
2018-12-17T03:00:11.600Z,10.47
2018-12-17T03:02:39.820Z,11.47
2018-12-17T03:05:08.932Z,13.53
2018-12-17T03:07:37.247Z,11.07
2018-12-17T03:10:06.183Z,11.03
2018-12-17T03:12:34.435Z,11.37
2018-12-17T03:15:02.735Z,11.97
2018-12-17T03:17:30.957Z,11.10
2018-12-17T03:19:59.179Z,11.47
2018-12-17T03:22:27.384Z,11.80
2018-12-17T03:24:55.599Z,11.50
2018-12-17T03:27:23.824Z,11.10
2018-12-17T03:29:52.035Z,11.40
2018-12-17T03:32:26.680Z,11.93
2018-12-17T03:34:54.907Z,10.83
2018-12-17T03:37:23.128Z,11.00
2018-12-17T03:39:51.352Z,10.07
2018-12-17T03:42:19.655Z,12.60
2018-12-17T03:44:47.968Z,11.00
2018-12-17T03:47:16.176Z,11.17
2018-12-17T03:49:44.388Z,11.87
2018-12-17T03:52:12.607Z,11.00
2018-12-17T03:54:40.825Z,13.13
2018-12-17T03:57:09.044Z,11.90
2018-12-17T03:59:37.276Z,12.03
2018-12-17T04:02:05.486Z,11.73
2018-12-17T04:04:33.798Z,10.77
2018-12-17T04:07:02.028Z,12.30
2018-12-17T04:09:30.244Z,10.77
2018-12-17T04:11:58.456Z,10.47
2018-12-17T04:14:26.660Z,9.80
2018-12-17T04:16:54.880Z,10.30
2018-12-17T04:19:23.115Z,10.00
2018-12-17T04:21:52.940Z,8.83
2018-12-17T04:24:21.343Z,6.83
2018-12-17T04:26:49.561Z,6.27
2018-12-17T04:29:17.858Z,5.83
2018-12-17T04:31:46.336Z,5.60
2018-12-17T04:34:14.545Z,6.10
2018-12-17T04:36:42.835Z,6.07
2018-12-17T04:39:11.124Z,7.50
2018-12-17T04:41:39.345Z,8.83
2018-12-17T04:44:07.546Z,6.40
2018-12-17T04:46:35.772Z,6.80
2018-12-17T04:49:04.166Z,7.13
2018-12-17T04:51:32.611Z,5.90
2018-12-17T04:54:00.823Z,7.73
2018-12-17T04:56:29.035Z,6.27
2018-12-17T04:58:57.256Z,6.10
2018-12-17T05:01:25.484Z,6.50
2018-12-17T05:03:53.690Z,6.03
2018-12-17T05:06:21.912Z,5.40
2018-12-17T05:08:50.123Z,5.70
2018-12-17T05:11:18.348Z,6.10
2018-12-17T05:13:46.555Z,5.30
2018-12-17T05:16:14.792Z,5.57
2018-12-17T05:18:43.014Z,7.00
2018-12-17T05:21:11.235Z,6.47
2018-12-17T05:23:39.455Z,5.70
2018-12-17T05:26:07.778Z,6.27
2018-12-17T05:28:35.996Z,6.50
2018-12-17T05:31:04.278Z,6.63
2018-12-17T05:33:32.596Z,6.67
2018-12-17T05:36:01.099Z,7.00
2018-12-17T05:38:29.529Z,6.70
2018-12-17T05:40:57.746Z,7.53
2018-12-17T05:43:25.979Z,7.40
2018-12-17T05:45:55.220Z,7.67
2018-12-17T05:48:23.671Z,6.73
2018-12-17T05:50:51.902Z,8.40
2018-12-17T05:53:20.133Z,8.47
2018-12-17T05:55:48.360Z,9.63
2018-12-17T05:58:16.573Z,10.47
2018-12-17T06:00:44.800Z,10.93
2018-12-17T06:03:13.072Z,11.57
2018-12-17T06:05:41.316Z,10.80
2018-12-17T06:08:12.300Z,10.13
2018-12-17T06:10:40.693Z,11.20
2018-12-17T06:13:09.071Z,11.07
2018-12-17T06:15:37.293Z,10.63
2018-12-17T06:18:05.511Z,9.87
2018-12-17T06:20:33.747Z,10.63
2018-12-17T06:23:01.979Z,10.30
2018-12-17T06:25:30.204Z,9.73
2018-12-17T06:27:58.430Z,13.17
2018-12-17T06:30:26.667Z,11.27
2018-12-17T06:32:54.881Z,10.60
2018-12-17T06:35:23.112Z,9.00
2018-12-17T06:37:51.391Z,10.30
2018-12-17T06:40:19.590Z,8.80
2018-12-17T06:42:47.819Z,11.67
2018-12-17T06:45:16.038Z,10.27
2018-12-17T06:47:44.280Z,10.20
2018-12-17T06:50:12.588Z,9.97
2018-12-17T06:52:40.825Z,10.37
2018-12-17T06:55:09.137Z,9.17
2018-12-17T06:57:37.356Z,11.63
2018-12-17T07:00:06.124Z,12.13
2018-12-17T07:02:34.372Z,11.13
2018-12-17T07:05:02.682Z,10.90
2018-12-17T07:07:30.921Z,10.60
2018-12-17T07:09:59.138Z,10.67
2018-12-17T07:12:27.372Z,11.60
2018-12-17T07:14:55.593Z,11.37
2018-12-17T07:17:23.830Z,12.03
2018-12-17T07:19:52.068Z,11.57
2018-12-17T07:22:20.289Z,13.70
2018-12-17T07:24:48.521Z,12.27
2018-12-17T07:27:16.833Z,12.57
2018-12-17T07:29:49.759Z,10.43
2018-12-17T07:32:15.295Z,10.83
2018-12-17T07:34:43.816Z,10.63
2018-12-17T07:37:12.235Z,10.50
2018-12-17T07:39:40.753Z,11.53
2018-12-17T07:42:09.056Z,11.40
2018-12-17T07:44:37.289Z,11.30
2018-12-17T07:47:05.509Z,11.50
2018-12-17T07:49:33.725Z,11.10
2018-12-17T07:52:01.952Z,10.07
2018-12-17T07:54:30.167Z,10.40
2018-12-17T07:56:58.401Z,10.63
2018-12-17T07:59:26.621Z,11.10
2018-12-17T08:01:54.851Z,11.23
2018-12-17T08:04:23.073Z,11.80
2018-12-17T08:06:51.304Z,11.27
2018-12-17T08:09:19.600Z,12.30
2018-12-17T08:11:47.828Z,14.17
2018-12-17T08:14:16.056Z,9.77
2018-12-17T08:16:44.260Z,10.10
2018-12-17T08:19:12.492Z,11.27
2018-12-17T08:21:40.716Z,10.23
2018-12-17T08:24:08.944Z,7.57
2018-12-17T08:26:37.165Z,6.20
2018-12-17T08:29:05.396Z,6.87
2018-12-17T08:31:33.616Z,6.50
2018-12-17T08:34:01.853Z,5.77
2018-12-17T08:36:30.068Z,5.10
2018-12-17T08:38:58.288Z,4.20
2018-12-17T08:41:26.504Z,5.57
2018-12-17T08:43:54.818Z,4.70
2018-12-17T08:46:23.028Z,4.57
2018-12-17T08:48:51.247Z,5.13
2018-12-17T08:51:19.458Z,5.63
2018-12-17T08:53:47.676Z,7.13
2018-12-17T08:56:15.896Z,4.93
2018-12-17T08:58:44.203Z,4.40
2018-12-17T09:01:12.426Z,4.90
2018-12-17T09:03:40.650Z,3.60
2018-12-17T09:06:08.860Z,3.67
2018-12-17T09:08:37.206Z,3.30
2018-12-17T09:11:05.485Z,3.90
2018-12-17T09:13:33.720Z,3.10
2018-12-17T09:16:02.039Z,3.17
2018-12-17T09:18:30.262Z,3.70
2018-12-17T09:20:58.459Z,3.57
2018-12-17T09:23:26.676Z,3.33
2018-12-17T09:25:54.896Z,3.07
2018-12-17T09:28:23.102Z,3.27
2018-12-17T09:30:51.312Z,3.53
2018-12-17T09:33:19.528Z,4.03
2018-12-17T09:35:47.764Z,3.80
2018-12-17T09:38:15.982Z,4.03
2018-12-17T09:40:44.195Z,4.60
2018-12-17T09:43:12.487Z,4.03
2018-12-17T09:45:40.717Z,4.43
2018-12-17T09:48:08.928Z,4.40
2018-12-17T09:50:37.151Z,3.57
2018-12-17T09:53:05.356Z,3.20
2018-12-17T09:55:33.576Z,3.20
2018-12-17T09:58:01.878Z,3.47
2018-12-17T10:00:30.128Z,3.80
2018-12-17T10:02:58.339Z,3.40
2018-12-17T10:05:26.660Z,3.10
2018-12-17T10:07:54.855Z,3.37
2018-12-17T10:10:23.088Z,3.17
2018-12-17T10:12:51.287Z,2.90
2018-12-17T10:15:19.507Z,3.00
2018-12-17T10:17:47.716Z,2.90
2018-12-17T10:20:16.020Z,2.93
2018-12-17T10:22:44.227Z,3.10
2018-12-17T10:25:12.455Z,3.27
2018-12-17T10:27:40.766Z,3.20
2018-12-17T10:30:09.161Z,3.60
2018-12-17T10:32:37.368Z,3.37
2018-12-17T10:35:05.746Z,4.03
2018-12-17T10:37:34.057Z,3.70
2018-12-17T10:40:02.371Z,3.70
2018-12-17T10:42:30.571Z,3.57
2018-12-17T10:44:58.804Z,3.20
2018-12-17T10:47:27.036Z,9.07
2018-12-17T10:49:55.252Z,4.17
2018-12-17T10:52:23.565Z,4.43
2018-12-17T10:54:51.784Z,3.70
2018-12-17T10:57:20.082Z,4.13
2018-12-17T10:59:48.391Z,6.43
2018-12-17T11:02:23.872Z,4.30
2018-12-17T11:04:56.636Z,4.27
2018-12-17T11:07:24.856Z,4.53
2018-12-17T11:09:53.100Z,5.00
2018-12-17T11:12:21.303Z,4.97
2018-12-17T11:14:49.620Z,4.60
2018-12-17T11:17:17.831Z,5.80
2018-12-17T11:19:46.063Z,5.13
2018-12-17T11:22:14.253Z,4.90
2018-12-17T11:24:48.841Z,4.63
2018-12-17T11:27:17.062Z,6.07
2018-12-17T11:29:45.276Z,5.47
2018-12-17T11:32:13.491Z,5.50
2018-12-17T11:34:41.792Z,5.30
2018-12-17T11:37:10.024Z,5.10
2018-12-17T11:39:38.231Z,5.00
2018-12-17T11:42:06.463Z,4.33
2018-12-17T11:44:34.672Z,5.13
2018-12-17T11:47:02.898Z,4.43
2018-12-17T11:49:31.108Z,4.80
2018-12-17T11:51:59.421Z,4.93
2018-12-17T11:54:27.636Z,4.77
2018-12-17T11:57:43.644Z,4.30
2018-12-17T12:00:12.059Z,4.47
2018-12-17T12:02:40.276Z,4.23
2018-12-17T12:05:08.491Z,4.47
2018-12-17T12:07:36.724Z,4.10
2018-12-17T12:10:05.232Z,5.80
2018-12-17T12:12:33.548Z,3.33
2018-12-17T12:15:01.781Z,3.70
2018-12-17T12:17:30.096Z,3.83
2018-12-17T12:19:58.321Z,2.50
2018-12-17T12:22:26.540Z,2.30
2018-12-17T12:24:54.788Z,2.60
2018-12-17T12:27:23.205Z,2.70
2018-12-17T12:29:51.708Z,2.60
2018-12-17T12:32:20.020Z,2.43
2018-12-17T12:34:48.249Z,2.80
2018-12-17T12:37:16.468Z,3.23
2018-12-17T12:39:44.676Z,2.53
2018-12-17T12:42:12.881Z,3.13
2018-12-17T12:44:41.167Z,3.20
2018-12-17T12:47:09.392Z,3.10
2018-12-17T12:49:39.155Z,3.93
2018-12-17T12:52:07.381Z,4.73
2018-12-17T12:54:35.593Z,3.23
2018-12-17T12:57:04.018Z,4.10
2018-12-17T12:59:32.356Z,4.13
2018-12-17T13:02:00.576Z,4.10
2018-12-17T13:04:28.792Z,4.30
2018-12-17T13:06:57.021Z,4.03
2018-12-17T13:09:25.235Z,4.33
2018-12-17T13:11:53.484Z,3.83
2018-12-17T13:14:21.716Z,4.30
2018-12-17T13:16:49.986Z,4.43
2018-12-17T13:19:18.214Z,3.67
2018-12-17T13:21:46.444Z,3.30
2018-12-17T13:24:14.719Z,3.67
2018-12-17T13:26:42.935Z,3.50
2018-12-17T13:29:11.136Z,3.23
2018-12-17T13:31:39.453Z,3.80
2018-12-17T13:34:07.668Z,3.93
2018-12-17T13:36:35.882Z,3.83
2018-12-17T13:39:06.301Z,3.53
2018-12-17T13:41:34.505Z,4.53
2018-12-17T13:44:02.812Z,3.80
2018-12-17T13:46:31.023Z,4.00
2018-12-17T13:48:59.341Z,3.70
2018-12-17T13:51:34.235Z,4.03
2018-12-17T13:54:02.508Z,4.43
2018-12-17T13:56:30.737Z,3.57
2018-12-17T13:58:58.948Z,4.10
2018-12-17T14:01:27.160Z,4.00
2018-12-17T14:03:55.379Z,3.90
2018-12-17T14:06:23.592Z,4.80
2018-12-17T14:08:51.907Z,4.00
2018-12-17T14:11:20.111Z,4.27
2018-12-17T14:13:48.334Z,4.60
2018-12-17T14:16:16.569Z,4.40
2018-12-17T14:18:50.807Z,5.30
2018-12-17T14:21:24.585Z,4.53
2018-12-17T14:23:52.807Z,5.13
2018-12-17T14:26:21.129Z,4.07
2018-12-17T14:28:49.340Z,3.93
2018-12-17T14:31:17.584Z,4.63
2018-12-17T14:33:45.816Z,4.73
2018-12-17T14:36:14.041Z,4.90
2018-12-17T14:38:42.269Z,5.03
2018-12-17T14:41:10.488Z,4.30
2018-12-17T14:43:38.713Z,5.43
2018-12-17T14:46:06.930Z,17.93
2018-12-17T14:48:35.271Z,5.43
2018-12-17T14:51:03.619Z,4.67
2018-12-17T14:53:31.835Z,5.30
2018-12-17T14:56:00.143Z,7.80
2018-12-17T14:58:28.364Z,9.20
2018-12-17T15:00:56.590Z,5.50
2018-12-17T15:03:24.913Z,4.93
2018-12-17T15:05:53.115Z,4.53
2018-12-17T15:08:21.328Z,4.37
2018-12-17T15:10:49.536Z,4.63
2018-12-17T15:13:17.755Z,4.77
2018-12-17T15:15:45.971Z,4.90
2018-12-17T15:18:14.179Z,4.20
2018-12-17T15:20:42.389Z,6.10
2018-12-17T15:23:10.712Z,5.00
2018-12-17T15:25:39.093Z,4.97
2018-12-17T15:28:07.319Z,5.00
2018-12-17T15:30:35.630Z,3.87
2018-12-17T15:33:03.933Z,3.97
2018-12-17T15:35:32.159Z,3.57
2018-12-17T15:38:00.387Z,3.80
2018-12-17T15:40:28.609Z,3.77
2018-12-17T15:42:56.951Z,4.30
2018-12-17T15:45:25.180Z,4.20
2018-12-17T15:47:53.413Z,3.97
2018-12-17T15:50:21.657Z,3.33
2018-12-17T15:52:49.935Z,3.50
2018-12-17T15:55:18.170Z,3.80
2018-12-17T15:57:46.419Z,3.30
2018-12-17T16:00:14.684Z,5.33
2018-12-17T16:02:42.911Z,16.07
2018-12-17T16:05:11.186Z,15.20
2018-12-17T16:07:39.516Z,6.87
2018-12-17T16:10:07.936Z,6.80
2018-12-17T16:12:36.154Z,3.90
2018-12-17T16:15:04.929Z,3.43
2018-12-17T16:17:33.138Z,3.20
2018-12-17T16:20:01.368Z,2.90
2018-12-17T16:22:29.663Z,2.80
2018-12-17T16:24:57.893Z,2.13
2018-12-17T16:27:26.196Z,3.03
2018-12-17T16:29:54.407Z,4.97
2018-12-17T16:32:22.643Z,6.00
2018-12-17T16:34:50.908Z,3.37
2018-12-17T16:37:19.112Z,2.97
2018-12-17T16:39:47.602Z,2.93
2018-12-17T16:42:15.868Z,3.47
2018-12-17T16:44:44.114Z,2.93
2018-12-17T16:47:12.388Z,3.90
2018-12-17T16:49:40.621Z,3.07
2018-12-17T16:52:08.836Z,3.10
2018-12-17T16:54:37.075Z,4.17
2018-12-17T16:57:05.294Z,2.77
2018-12-17T16:59:33.534Z,1.83
2018-12-17T17:02:04.601Z,2.70
2018-12-17T17:04:31.983Z,3.10
2018-12-17T17:07:00.268Z,2.37
2018-12-17T17:09:28.500Z,2.87
2018-12-17T17:11:56.801Z,2.57
2018-12-17T17:14:25.913Z,2.87
2018-12-17T17:16:54.259Z,2.37
2018-12-17T17:19:22.514Z,2.20
2018-12-17T17:21:50.808Z,2.83
2018-12-17T17:24:19.044Z,2.83
2018-12-17T17:26:47.384Z,2.40
2018-12-17T17:29:15.620Z,2.77
2018-12-17T17:31:43.864Z,2.50
2018-12-17T17:34:13.033Z,2.27
2018-12-17T17:36:41.257Z,2.77
2018-12-17T17:39:09.686Z,3.07
2018-12-17T17:41:38.007Z,2.80
2018-12-17T17:44:06.273Z,3.00
2018-12-17T17:46:34.500Z,3.23
2018-12-17T17:49:02.734Z,3.10
2018-12-17T17:51:31.045Z,2.67
2018-12-17T17:53:59.288Z,3.00
2018-12-17T17:56:27.552Z,2.67
2018-12-17T17:58:55.995Z,2.77
2018-12-17T18:01:24.274Z,3.13
2018-12-17T18:03:52.509Z,3.17
2018-12-17T18:06:20.717Z,3.20
2018-12-17T18:08:48.932Z,3.20
2018-12-17T18:11:17.264Z,3.30
2018-12-17T18:13:45.556Z,3.77
2018-12-17T18:16:13.828Z,3.20
2018-12-17T18:18:42.047Z,4.23
2018-12-17T18:21:10.304Z,3.67
2018-12-17T18:23:38.632Z,4.27
2018-12-17T18:26:06.912Z,3.00
2018-12-17T18:28:35.135Z,3.27
2018-12-17T18:31:03.456Z,3.20
2018-12-17T18:33:31.696Z,2.67
2018-12-17T18:36:00.094Z,3.00
2018-12-17T18:38:28.307Z,3.03
2018-12-17T18:40:56.566Z,2.20
2018-12-17T18:43:24.781Z,2.67
2018-12-17T18:45:53.016Z,2.37
2018-12-17T18:48:21.239Z,2.33
2018-12-17T18:50:50.596Z,2.73
2018-12-17T18:53:18.825Z,3.50
2018-12-17T18:55:47.070Z,2.77
2018-12-17T18:58:15.290Z,2.47
2018-12-17T19:00:43.503Z,2.10
2018-12-17T19:03:11.727Z,2.50
2018-12-17T19:05:40.014Z,3.07
2018-12-17T19:08:08.245Z,3.17
2018-12-17T19:10:41.980Z,2.67
2018-12-17T19:13:10.219Z,2.47
2018-12-17T19:15:38.568Z,3.40
2018-12-17T19:18:06.792Z,2.60
2018-12-17T19:20:35.169Z,3.27
2018-12-17T19:23:03.465Z,2.77
2018-12-17T19:25:31.715Z,2.67
2018-12-17T19:28:00.049Z,3.13
2018-12-17T19:30:28.297Z,2.50
2018-12-17T19:32:56.517Z,2.63
2018-12-17T19:35:24.759Z,3.00
2018-12-17T19:37:53.402Z,2.80
2018-12-17T19:40:21.706Z,2.10
2018-12-17T19:42:49.921Z,1.80
2018-12-17T19:45:18.152Z,1.70
2018-12-17T19:47:46.375Z,1.97
2018-12-17T19:50:14.704Z,1.70
2018-12-17T19:52:42.908Z,1.80
2018-12-17T19:55:11.154Z,2.63
2018-12-17T19:57:39.361Z,2.00
2018-12-17T20:00:09.240Z,2.13
2018-12-17T20:02:37.548Z,1.90
2018-12-17T20:05:05.944Z,1.63
2018-12-17T20:07:34.152Z,2.13
2018-12-17T20:10:02.371Z,1.73
2018-12-17T20:12:30.596Z,2.00
2018-12-17T20:14:58.823Z,2.40
2018-12-17T20:17:27.039Z,1.93
2018-12-17T20:19:55.258Z,1.93
2018-12-17T20:22:23.483Z,2.13
2018-12-17T20:24:51.698Z,1.87
2018-12-17T20:27:19.946Z,1.80
2018-12-17T20:29:50.600Z,2.03
2018-12-17T20:32:18.537Z,2.10
2018-12-17T20:34:46.793Z,1.67
2018-12-17T20:37:15.171Z,2.00
2018-12-17T20:39:43.377Z,2.20
2018-12-17T20:42:11.631Z,1.63
2018-12-17T20:44:39.832Z,1.70
2018-12-17T20:47:08.072Z,1.60
2018-12-17T20:49:36.285Z,1.83
2018-12-17T20:52:04.528Z,1.40
2018-12-17T20:54:32.770Z,2.40
2018-12-17T20:57:00.988Z,1.67
2018-12-17T20:59:36.036Z,1.83
2018-12-17T21:02:04.726Z,1.47
2018-12-17T21:04:33.004Z,2.00
2018-12-17T21:07:01.227Z,2.40
2018-12-17T21:09:29.464Z,2.00
2018-12-17T21:11:58.076Z,2.13
2018-12-17T21:14:26.290Z,1.87
2018-12-17T21:16:54.600Z,2.00
2018-12-17T21:19:23.071Z,2.30
2018-12-17T21:21:51.398Z,2.10
2018-12-17T21:24:19.612Z,3.07
2018-12-17T21:26:47.992Z,2.17
2018-12-17T21:29:16.294Z,2.07
2018-12-17T21:31:44.512Z,1.90
2018-12-17T21:34:12.744Z,2.00
2018-12-17T21:36:41.380Z,2.10
2018-12-17T21:39:09.582Z,2.17
2018-12-17T21:41:37.805Z,2.10
2018-12-17T21:44:06.026Z,2.10
2018-12-17T21:46:34.249Z,1.93
2018-12-17T21:49:02.447Z,1.83
2018-12-17T21:51:30.669Z,2.23
2018-12-17T21:53:58.904Z,2.40
2018-12-17T21:56:27.121Z,2.00
2018-12-17T21:58:55.329Z,2.10
2018-12-17T22:01:23.545Z,3.00
2018-12-17T22:03:51.752Z,3.20
2018-12-17T22:06:19.968Z,3.03
2018-12-17T22:08:48.180Z,3.20
2018-12-17T22:11:16.400Z,3.00
2018-12-17T22:13:44.610Z,3.80
2018-12-17T22:16:12.824Z,4.00
2018-12-17T22:18:41.022Z,3.80
2018-12-17T22:21:09.728Z,3.63
2018-12-17T22:23:37.936Z,3.80
2018-12-17T22:26:06.251Z,4.20
2018-12-17T22:28:34.451Z,3.30
2018-12-17T22:31:02.756Z,3.60
2018-12-17T22:33:31.002Z,3.70
2018-12-17T22:35:59.214Z,3.90
2018-12-17T22:38:27.429Z,3.67
2018-12-17T22:40:55.647Z,3.80
2018-12-17T22:43:23.917Z,4.03
2018-12-17T22:45:52.190Z,3.93
2018-12-17T22:48:20.411Z,3.87
2018-12-17T22:50:48.855Z,3.80
2018-12-17T22:53:17.143Z,4.00
2018-12-17T22:55:45.368Z,3.43
2018-12-17T22:58:13.573Z,3.80
2018-12-17T23:00:42.655Z,3.43
2018-12-17T23:03:10.951Z,3.23
2018-12-17T23:05:39.176Z,3.30
2018-12-17T23:08:07.579Z,3.23
2018-12-17T23:10:47.090Z,3.53
2018-12-17T23:13:26.692Z,3.63
2018-12-17T23:16:06.342Z,3.60
2018-12-17T23:18:33.660Z,4.10
2018-12-17T23:21:01.879Z,3.60
2018-12-17T23:23:30.307Z,3.53
2018-12-17T23:25:58.600Z,3.37
2018-12-17T23:28:26.821Z,3.43
2018-12-17T23:30:55.027Z,3.47
2018-12-17T23:33:23.348Z,3.83
2018-12-17T23:35:51.554Z,3.67
2018-12-17T23:38:19.768Z,3.60
2018-12-17T23:40:47.973Z,3.90
2018-12-17T23:43:16.463Z,3.43
2018-12-17T23:45:44.672Z,3.20
2018-12-17T23:48:12.968Z,3.87
2018-12-17T23:50:41.192Z,3.20
2018-12-17T23:53:09.403Z,3.20
2018-12-17T23:55:37.613Z,4.10
2018-12-17T23:58:05.912Z,3.80
